West Las Vegas, New Mexico
Current Conditions -  °F | °C
As of 8:53 AM on Saturday 22 Nov 2014 (Local Time) from KLVS Reporting Station
Clear Clear  
Wind Chill: 44°   Ceiling: Unl
Heat Index: 46°   Visibility: 10mi
Dew Point: 15°   Wind: 5mph
Humidity: 29%   Direction: 200°SSW
Pressure: 30.01"   Gusts: NA
Location:  35.5292°N, 104.927°W
Report Text: KLVS 221553Z AUTO 20004KT 10SM CLR 08/M09 A3001 RMK AO2 SLP119 T00781094
Loading
Personal Weather Stations






























Interactive Weather Map New forecast layout! Learn more

10-Day Weather Forecast

Advertisements
Track Severe Weather on mobile